Aviation Digital Data Service (ADDS)

Output produced by METARs form (1140 UTC 27 May 2017)
found at http://www.aviationweather.gov/adds/metars/
 
LUKK 271130Z 03011KT 9999 SCT042CB 20/10 Q1015 R08/D NOSIG
TAF LUKK 271120Z 2712/2812 02012KT 9999 BKN030CB 
     TEMPO 2712/2716 36016G28KT 5000 TSRA BKN015 BKN020CB 
     BECMG 2716/2718 SCT030 
     TEMPO 2723/2806 5000 BR BKN006
       
LUKK 271130Z 03011KT 9999 SCT042CB 20/10 Q1015 R08/D NOSIG
TAF LUKK 271120Z 2712/2812 02012KT 9999 BKN030CB 
     TEMPO 2712/2716 36016G28KT 5000 TSRA BKN015 BKN020CB 
     BECMG 2716/2718 SCT030 
     TEMPO 2723/2806 5000 BR BKN006